createdAt,value
2018-10-11T00:04:11.862Z,57.82
2018-10-11T00:09:08.308Z,58.32
2018-10-11T00:14:01.628Z,57.92
2018-10-11T00:18:54.883Z,58.37
2018-10-11T00:23:48.202Z,58.74
2018-10-11T00:28:41.363Z,59.39
2018-10-11T00:33:34.756Z,59.42
2018-10-11T00:38:27.916Z,59.01
2018-10-11T00:43:21.127Z,59.74
2018-10-11T00:48:14.392Z,59.94
2018-10-11T00:53:08.058Z,60.24
2018-10-11T00:58:01.307Z,60.10
2018-10-11T01:02:54.628Z,61.39
2018-10-11T01:07:48.872Z,60.64
2018-10-11T01:12:42.150Z,60.80
2018-10-11T01:17:35.410Z,60.83
2018-10-11T01:22:28.644Z,61.27
2018-10-11T01:27:21.893Z,61.48
2018-10-11T01:32:15.382Z,61.47
2018-10-11T01:37:08.782Z,61.71
2018-10-11T01:42:02.062Z,61.57
2018-10-11T01:46:55.335Z,61.82
2018-10-11T01:51:48.590Z,62.37
2018-10-11T01:56:42.099Z,62.64
2018-10-11T02:01:35.831Z,62.43
2018-10-11T02:06:29.036Z,63.03
2018-10-11T02:11:22.416Z,62.63
2018-10-11T02:16:15.683Z,62.90
2018-10-11T02:21:08.982Z,62.75
2018-10-11T02:26:02.267Z,63.46
2018-10-11T02:30:55.663Z,63.48
2018-10-11T02:35:48.849Z,63.65
2018-10-11T02:40:42.255Z,63.98
2018-10-11T02:45:35.506Z,64.60
2018-10-11T02:50:28.810Z,64.27
2018-10-11T02:55:25.003Z,64.19
2018-10-11T03:00:18.408Z,62.75
2018-10-11T03:05:14.427Z,62.57
2018-10-11T03:10:07.721Z,62.72
2018-10-11T03:15:00.954Z,62.41
2018-10-11T03:19:54.845Z,63.00
2018-10-11T03:24:48.588Z,63.13
2018-10-11T03:29:42.081Z,62.05
2018-10-11T03:34:35.510Z,61.41
2018-10-11T03:39:29.325Z,60.46
2018-10-11T03:44:22.685Z,60.72
2018-10-11T03:49:16.147Z,60.32
2018-10-11T03:54:09.527Z,60.73
2018-10-11T03:59:03.144Z,60.72
2018-10-11T04:03:57.254Z,60.29
2018-10-11T04:08:50.719Z,61.74
2018-10-11T04:13:44.411Z,60.25
2018-10-11T04:18:38.037Z,60.54
2018-10-11T04:23:31.752Z,61.49
2018-10-11T04:28:25.789Z,61.67
2018-10-11T04:33:19.147Z,61.48
2018-10-11T04:38:12.507Z,62.27
2018-10-11T04:43:06.028Z,61.89
2018-10-11T04:47:59.197Z,61.43
2018-10-11T04:52:52.477Z,61.46
2018-10-11T04:57:45.824Z,61.94
2018-10-11T05:02:39.316Z,61.32
2018-10-11T05:07:32.707Z,61.22
2018-10-11T05:12:26.150Z,60.91
2018-10-11T05:17:19.612Z,60.80
2018-10-11T05:22:12.955Z,59.88
2018-10-11T05:27:07.382Z,58.09
2018-10-11T05:32:00.707Z,58.22
2018-10-11T05:36:54.430Z,57.95
2018-10-11T05:41:47.814Z,58.54
2018-10-11T05:46:41.731Z,58.58
2018-10-11T05:51:35.517Z,59.53
2018-10-11T05:56:30.562Z,60.65
2018-10-11T06:01:24.050Z,60.78
2018-10-11T06:06:17.664Z,60.57
2018-10-11T06:11:11.257Z,60.78
2018-10-11T06:16:04.593Z,58.82
2018-10-11T06:20:58.041Z,58.77
2018-10-11T06:25:51.462Z,57.07
2018-10-11T06:30:45.120Z,56.84
2018-10-11T06:35:38.711Z,55.50
2018-10-11T06:40:36.458Z,54.36
2018-10-11T06:45:30.380Z,55.33
2018-10-11T06:50:23.942Z,54.93
2018-10-11T06:55:17.447Z,56.92
2018-10-11T07:00:11.050Z,56.85
2018-10-11T07:05:04.702Z,54.20
2018-10-11T07:09:58.314Z,54.17
2018-10-11T07:14:52.715Z,56.30
2018-10-11T07:19:46.310Z,52.72
2018-10-11T07:24:39.738Z,53.38
2018-10-11T07:29:33.283Z,54.04
2018-10-11T07:34:26.478Z,54.48
2018-10-11T07:39:19.857Z,55.71
2018-10-11T07:44:13.279Z,55.20
2018-10-11T07:49:07.487Z,55.32
2018-10-11T07:54:01.352Z,54.72
2018-10-11T07:58:54.833Z,55.57
2018-10-11T08:03:48.300Z,56.36
2018-10-11T08:08:41.558Z,56.48
2018-10-11T08:13:34.971Z,56.64
2018-10-11T08:18:28.314Z,57.15
2018-10-11T08:23:21.777Z,56.45
2018-10-11T08:28:15.289Z,56.21
2018-10-11T08:33:08.733Z,56.31
2018-10-11T08:38:02.467Z,55.28
2018-10-11T08:42:55.732Z,55.04
2018-10-11T08:47:49.352Z,54.70
2018-10-11T08:52:42.685Z,55.45
2018-10-11T08:57:36.348Z,55.59
2018-10-11T09:02:29.756Z,55.92
2018-10-11T09:07:23.209Z,55.72
2018-10-11T09:12:16.481Z,56.92
2018-10-11T09:17:09.802Z,57.49
2018-10-11T09:22:03.037Z,56.42
2018-10-11T09:26:56.503Z,56.19
2018-10-11T09:31:49.895Z,55.46
2018-10-11T09:36:43.138Z,55.19
2018-10-11T09:41:36.830Z,54.79
2018-10-11T09:46:30.394Z,54.94
2018-10-11T09:51:23.544Z,54.45
2018-10-11T09:56:16.967Z,55.10
2018-10-11T10:01:15.672Z,54.42
2018-10-11T10:06:09.495Z,54.38
2018-10-11T10:11:02.824Z,55.96
2018-10-11T10:15:56.087Z,55.81
2018-10-11T10:20:49.354Z,55.46
2018-10-11T10:25:42.610Z,56.51
2018-10-11T10:30:41.195Z,58.72
2018-10-11T10:35:34.389Z,60.29
2018-10-11T10:40:27.633Z,58.98
2018-10-11T10:45:21.073Z,57.11
2018-10-11T10:50:14.391Z,56.05
2018-10-11T10:55:07.905Z,58.49
2018-10-11T11:00:02.136Z,59.33
2018-10-11T11:04:55.339Z,59.66
2018-10-11T11:09:48.600Z,59.21
2018-10-11T11:14:42.840Z,57.88
2018-10-11T11:19:36.133Z,58.09
2018-10-11T11:24:30.008Z,57.64
2018-10-11T11:29:23.295Z,59.12
2018-10-11T11:34:16.567Z,59.21
2018-10-11T11:39:14.030Z,57.92
2018-10-11T11:44:08.333Z,56.89
2018-10-11T11:49:01.521Z,56.65
2018-10-11T11:53:55.165Z,55.46
2018-10-11T11:58:49.352Z,54.11
2018-10-11T12:03:42.705Z,53.67
2018-10-11T12:08:36.575Z,52.68
2018-10-11T12:13:29.747Z,52.35
2018-10-11T12:18:23.336Z,52.51
2018-10-11T12:23:16.602Z,53.04
2018-10-11T12:28:10.103Z,54.24
2018-10-11T12:33:06.565Z,55.00
2018-10-11T12:38:00.411Z,54.58
2018-10-11T12:42:53.782Z,54.57
2018-10-11T12:47:47.174Z,54.68
2018-10-11T12:52:41.586Z,53.82
2018-10-11T12:57:34.866Z,54.81
2018-10-11T13:02:29.607Z,55.76
2018-10-11T13:07:22.781Z,55.59
2018-10-11T13:12:16.182Z,56.37
2018-10-11T13:17:11.921Z,57.60
2018-10-11T13:22:05.366Z,58.11
2018-10-11T13:26:59.794Z,58.47
2018-10-11T13:31:53.381Z,58.95
2018-10-11T13:36:46.745Z,58.23
2018-10-11T13:41:40.411Z,58.16
2018-10-11T13:46:33.704Z,57.60
2018-10-11T13:51:33.249Z,58.66
2018-10-11T13:56:28.761Z,58.46
2018-10-11T14:01:22.865Z,59.10
2018-10-11T14:06:17.288Z,59.99
2018-10-11T14:11:12.186Z,60.44
2018-10-11T14:16:05.619Z,60.67
2018-10-11T14:20:59.381Z,61.15
2018-10-11T14:25:53.240Z,60.32
2018-10-11T14:30:47.212Z,61.18
2018-10-11T14:35:40.543Z,61.09
2018-10-11T14:40:34.165Z,61.47
2018-10-11T14:45:27.437Z,62.19
2018-10-11T14:50:25.433Z,62.63
2018-10-11T14:55:18.796Z,62.96
2018-10-11T15:00:12.168Z,62.71
2018-10-11T15:05:05.664Z,63.22
2018-10-11T15:09:59.408Z,62.88
2018-10-11T15:14:52.728Z,64.46
2018-10-11T15:19:48.730Z,64.70
2018-10-11T15:24:42.298Z,63.66
2018-10-11T15:29:35.675Z,64.40
2018-10-11T15:34:29.279Z,64.61
2018-10-11T15:39:25.823Z,64.09
2018-10-11T15:44:19.839Z,62.11
2018-10-11T15:49:16.943Z,62.20
2018-10-11T15:54:10.387Z,62.86
2018-10-11T15:59:04.830Z,60.54
2018-10-11T16:03:58.031Z,63.03
2018-10-11T16:08:53.063Z,61.17
2018-10-11T16:13:46.519Z,62.83
2018-10-11T16:18:39.918Z,61.73
2018-10-11T16:23:33.527Z,62.25
2018-10-11T16:28:26.735Z,61.70
2018-10-11T16:33:23.160Z,62.79
2018-10-11T16:38:18.383Z,63.10
2018-10-11T16:43:13.949Z,63.86
2018-10-11T16:48:08.045Z,63.69
2018-10-11T16:53:05.419Z,63.81
2018-10-11T16:58:00.947Z,63.18
2018-10-11T17:02:56.632Z,63.63
2018-10-11T17:07:51.719Z,63.82
2018-10-11T17:12:47.477Z,63.86
2018-10-11T17:17:41.548Z,63.11
2018-10-11T17:22:36.130Z,62.65
2018-10-11T17:27:32.556Z,62.72
2018-10-11T17:32:28.021Z,62.94
2018-10-11T17:37:21.467Z,63.13
2018-10-11T17:42:16.466Z,63.05
2018-10-11T17:47:09.812Z,63.03
2018-10-11T17:52:03.179Z,63.93
2018-10-11T17:57:00.369Z,63.76
2018-10-11T18:01:55.636Z,63.98
2018-10-11T18:06:49.393Z,64.16
2018-10-11T18:11:43.890Z,63.62
2018-10-11T18:16:38.402Z,62.34
2018-10-11T18:21:31.906Z,61.59
2018-10-11T18:26:25.703Z,60.25
2018-10-11T18:31:21.293Z,60.27
2018-10-11T18:36:15.342Z,58.58
2018-10-11T18:41:15.264Z,59.04
2018-10-11T18:46:09.062Z,59.18
2018-10-11T18:51:05.093Z,57.95
2018-10-11T18:55:58.327Z,58.14
2018-10-11T19:00:53.349Z,59.50
2018-10-11T19:05:46.697Z,59.75
2018-10-11T19:10:40.612Z,59.11
2018-10-11T19:15:35.077Z,60.38
2018-10-11T19:20:31.323Z,60.08
2018-10-11T19:25:25.224Z,58.95
2018-10-11T19:30:18.869Z,59.09
2018-10-11T19:35:12.597Z,59.47
2018-10-11T19:40:06.239Z,60.55
2018-10-11T19:45:00.471Z,59.80
2018-10-11T19:49:54.593Z,59.24
2018-10-11T19:54:48.385Z,58.72
2018-10-11T19:59:42.024Z,57.22
2018-10-11T20:04:35.579Z,56.75
2018-10-11T20:09:28.887Z,56.96
2018-10-11T20:14:22.529Z,58.30
2018-10-11T20:19:16.269Z,58.35
2018-10-11T20:24:10.171Z,57.70
2018-10-11T20:29:03.632Z,55.97
2018-10-11T20:33:57.275Z,57.25
2018-10-11T20:38:51.265Z,56.26
2018-10-11T20:43:45.602Z,57.78
2018-10-11T20:48:39.390Z,58.22
2018-10-11T20:53:32.789Z,60.49
2018-10-11T20:58:26.353Z,61.45
2018-10-11T21:03:19.808Z,60.74
2018-10-11T21:08:13.220Z,60.62
2018-10-11T21:13:07.125Z,61.88
2018-10-11T21:18:01.734Z,60.22
2018-10-11T21:22:55.279Z,60.19
2018-10-11T21:27:49.885Z,60.00
2018-10-11T21:32:43.304Z,59.12
2018-10-11T21:37:37.670Z,60.40
2018-10-11T21:42:30.999Z,60.94
2018-10-11T21:47:24.376Z,61.47
2018-10-11T21:52:17.687Z,61.26
2018-10-11T21:57:11.535Z,59.72
2018-10-11T22:02:06.118Z,59.28
2018-10-11T22:06:59.381Z,60.17
2018-10-11T22:11:53.263Z,60.13
2018-10-11T22:16:46.689Z,60.29
2018-10-11T22:21:40.350Z,60.44
2018-10-11T22:26:33.894Z,60.53
2018-10-11T22:31:27.518Z,60.30
2018-10-11T22:36:20.718Z,60.30
2018-10-11T22:41:14.191Z,58.61
2018-10-11T22:46:08.608Z,60.15
2018-10-11T22:51:03.637Z,60.38
2018-10-11T22:55:56.979Z,61.15
2018-10-11T23:00:50.366Z,62.48
2018-10-11T23:05:44.624Z,61.80
2018-10-11T23:10:38.198Z,62.29
2018-10-11T23:15:31.690Z,62.38
2018-10-11T23:20:24.983Z,61.84
2018-10-11T23:25:18.625Z,62.19
2018-10-11T23:30:12.634Z,62.52
2018-10-11T23:35:06.552Z,62.70
2018-10-11T23:40:00.457Z,62.95
2018-10-11T23:44:55.215Z,61.02
2018-10-11T23:49:48.754Z,60.46
2018-10-11T23:54:43.122Z,60.90
2018-10-11T23:59:37.555Z,60.63
